createdAt,value
2018-05-17T00:02:28.182Z,17.43
2018-05-17T00:04:58.967Z,17.67
2018-05-17T00:07:29.730Z,18.20
2018-05-17T00:10:00.531Z,18.40
2018-05-17T00:12:31.316Z,18.87
2018-05-17T00:15:02.107Z,17.20
2018-05-17T00:17:32.903Z,18.80
2018-05-17T00:20:03.688Z,18.50
2018-05-17T00:22:34.507Z,18.80
2018-05-17T00:25:05.280Z,18.90
2018-05-17T00:27:36.532Z,19.23
2018-05-17T00:30:07.300Z,18.70
2018-05-17T00:32:38.080Z,18.07
2018-05-17T00:35:08.908Z,19.17
2018-05-17T00:37:39.679Z,18.20
2018-05-17T00:40:10.488Z,19.30
2018-05-17T00:42:41.308Z,18.90
2018-05-17T00:45:12.120Z,19.57
2018-05-17T00:47:42.914Z,18.87
2018-05-17T00:50:13.691Z,20.13
2018-05-17T00:52:56.788Z,19.77
2018-05-17T00:55:27.572Z,19.83
2018-05-17T00:57:58.368Z,19.40
2018-05-17T01:00:29.181Z,20.77
2018-05-17T01:02:59.976Z,19.57
2018-05-17T01:05:30.755Z,19.73
2018-05-17T01:08:01.551Z,19.87
2018-05-17T01:10:32.347Z,19.27
2018-05-17T01:13:03.203Z,19.97
2018-05-17T01:15:34.022Z,19.17
2018-05-17T01:18:04.923Z,20.40
2018-05-17T01:20:36.820Z,21.07
2018-05-17T01:23:07.652Z,18.60
2018-05-17T01:25:38.455Z,19.40
2018-05-17T01:28:09.309Z,20.43
2018-05-17T01:30:40.110Z,19.43
2018-05-17T01:33:10.902Z,20.13
2018-05-17T01:35:41.747Z,18.50
2018-05-17T01:38:24.795Z,20.10
2018-05-17T01:40:55.593Z,20.23
2018-05-17T01:43:26.389Z,18.17
2018-05-17T01:45:57.189Z,19.00
2018-05-17T01:48:27.966Z,19.17
2018-05-17T01:50:58.715Z,20.97
2018-05-17T01:53:36.439Z,18.30
2018-05-17T01:56:07.234Z,19.23
2018-05-17T01:58:38.033Z,18.87
2018-05-17T02:01:08.892Z,18.73
2018-05-17T02:03:39.695Z,19.93
2018-05-17T02:06:10.463Z,18.93
2018-05-17T02:08:41.252Z,18.47
2018-05-17T02:11:12.042Z,18.83
2018-05-17T02:13:42.892Z,18.50
2018-05-17T02:16:13.663Z,18.80
2018-05-17T02:18:44.444Z,18.63
2018-05-17T02:21:15.348Z,18.13
2018-05-17T02:23:46.145Z,17.90
2018-05-17T02:26:16.921Z,18.43
2018-05-17T02:28:47.776Z,19.90
2018-05-17T02:31:18.620Z,19.40
2018-05-17T02:33:49.432Z,19.77
2018-05-17T02:36:21.300Z,19.63
2018-05-17T02:38:52.080Z,19.67
2018-05-17T02:41:22.950Z,20.20
2018-05-17T02:43:53.707Z,18.50
2018-05-17T02:46:24.503Z,18.90
2018-05-17T02:48:55.320Z,19.40
2018-05-17T02:51:26.087Z,17.93
2018-05-17T02:53:56.876Z,19.23
2018-05-17T02:56:27.661Z,18.53
2018-05-17T02:58:58.966Z,17.13
2018-05-17T03:01:29.746Z,18.35
2018-05-17T03:04:00.536Z,17.20
2018-05-17T03:06:31.316Z,17.60
2018-05-17T03:09:02.332Z,17.97
2018-05-17T03:11:33.163Z,17.70
2018-05-17T03:14:03.939Z,19.07
2018-05-17T03:16:34.780Z,17.50
2018-05-17T03:19:05.608Z,17.57
2018-05-17T03:21:36.384Z,17.80
2018-05-17T03:24:07.407Z,17.13
2018-05-17T03:26:38.180Z,17.45
2018-05-17T03:29:08.949Z,17.00
2018-05-17T03:31:39.706Z,17.20
2018-05-17T03:34:10.502Z,17.53
2018-05-17T03:36:41.267Z,16.30
2018-05-17T03:39:12.055Z,14.77
2018-05-17T03:41:42.853Z,17.47
2018-05-17T03:44:13.670Z,15.70
2018-05-17T03:46:44.459Z,16.03
2018-05-17T03:49:15.278Z,16.70
2018-05-17T03:51:46.317Z,15.57
2018-05-17T03:54:17.264Z,16.00
2018-05-17T03:56:48.124Z,16.47
2018-05-17T03:59:18.988Z,15.77
2018-05-17T04:02:02.054Z,14.30
2018-05-17T04:04:45.276Z,16.02
2018-05-17T04:07:16.109Z,16.33
2018-05-17T04:09:46.904Z,16.77
2018-05-17T04:12:17.705Z,15.50
2018-05-17T04:14:48.494Z,15.90
2018-05-17T04:17:19.290Z,16.33
2018-05-17T04:19:50.099Z,15.73
2018-05-17T04:22:20.875Z,16.27
2018-05-17T04:24:51.695Z,15.40
2018-05-17T04:27:22.484Z,15.97
2018-05-17T04:29:53.308Z,15.10
2018-05-17T04:32:24.114Z,15.60
2018-05-17T04:34:54.903Z,18.07
2018-05-17T04:37:25.719Z,17.00
2018-05-17T04:39:56.523Z,16.13
2018-05-17T04:42:27.304Z,15.37
2018-05-17T04:44:58.099Z,16.27
2018-05-17T04:47:28.856Z,15.10
2018-05-17T04:49:59.647Z,14.23
2018-05-17T04:52:30.440Z,15.30
2018-05-17T04:55:13.197Z,14.20
2018-05-17T04:57:44.994Z,16.47
2018-05-17T05:00:15.795Z,15.50
2018-05-17T05:02:46.614Z,13.70
2018-05-17T05:05:17.418Z,13.73
2018-05-17T05:07:48.213Z,15.63
2018-05-17T05:10:19.009Z,14.47
2018-05-17T05:12:49.834Z,14.67
2018-05-17T05:15:20.631Z,14.40
2018-05-17T05:17:51.441Z,13.47
2018-05-17T05:20:22.295Z,15.07
2018-05-17T05:22:53.083Z,15.60
2018-05-17T05:25:23.980Z,16.20
2018-05-17T05:27:54.692Z,15.13
2018-05-17T05:30:25.495Z,14.33
2018-05-17T05:32:56.369Z,15.03
2018-05-17T05:35:27.292Z,14.43
2018-05-17T05:37:58.116Z,16.10
2018-05-17T05:40:28.891Z,15.20
2018-05-17T05:42:59.892Z,15.33
2018-05-17T05:45:30.685Z,14.90
2018-05-17T05:48:01.441Z,15.50
2018-05-17T05:50:32.331Z,16.10
2018-05-17T05:53:03.118Z,15.40
2018-05-17T05:55:33.897Z,14.53
2018-05-17T05:58:04.677Z,14.70
2018-05-17T06:00:35.459Z,16.43
2018-05-17T06:03:06.232Z,15.13
2018-05-17T06:05:37.153Z,16.00
2018-05-17T06:08:07.960Z,14.73
2018-05-17T06:10:38.749Z,14.83
2018-05-17T06:13:09.561Z,14.77
2018-05-17T06:15:40.327Z,13.97
2018-05-17T06:18:11.100Z,14.70
2018-05-17T06:20:41.863Z,13.20
2018-05-17T06:23:12.635Z,14.20
2018-05-17T06:25:43.426Z,14.60
2018-05-17T06:28:14.185Z,13.83
2018-05-17T06:30:44.963Z,13.53
2018-05-17T06:33:15.752Z,14.00
2018-05-17T06:35:46.526Z,14.00
2018-05-17T06:38:17.451Z,12.70
2018-05-17T06:40:48.308Z,13.70
2018-05-17T06:43:19.118Z,15.07
2018-05-17T06:45:49.947Z,13.87
2018-05-17T06:48:20.735Z,13.30
2018-05-17T06:50:51.528Z,13.30
2018-05-17T06:53:22.321Z,13.73
2018-05-17T06:55:53.127Z,13.13
2018-05-17T06:58:23.936Z,14.10
2018-05-17T07:00:54.748Z,13.67
2018-05-17T07:03:25.548Z,13.43
2018-05-17T07:05:56.386Z,11.97
2018-05-17T07:08:28.187Z,13.00
2018-05-17T07:10:59.006Z,12.83
2018-05-17T07:13:29.788Z,14.20
2018-05-17T07:16:00.572Z,13.87
2018-05-17T07:18:31.583Z,11.87
2018-05-17T07:21:02.187Z,13.63
2018-05-17T07:23:32.999Z,13.20
2018-05-17T07:26:03.783Z,12.20
2018-05-17T07:28:34.624Z,12.23
2018-05-17T07:31:05.523Z,11.77
2018-05-17T07:33:36.366Z,12.40
2018-05-17T07:36:08.226Z,12.60
2018-05-17T07:38:39.031Z,12.30
2018-05-17T07:41:09.815Z,12.70
2018-05-17T07:43:40.595Z,12.43
2018-05-17T07:46:11.370Z,12.40
2018-05-17T07:48:42.170Z,13.17
2018-05-17T07:51:12.953Z,11.97
2018-05-17T07:53:43.730Z,12.53
2018-05-17T07:56:14.549Z,12.57
2018-05-17T07:58:45.344Z,13.27
2018-05-17T08:01:16.201Z,11.33
2018-05-17T08:03:46.984Z,11.33
2018-05-17T08:06:17.781Z,12.20
2018-05-17T08:08:48.540Z,11.77
2018-05-17T08:11:19.332Z,13.80
2018-05-17T08:13:50.115Z,13.13
2018-05-17T08:16:20.921Z,12.93
2018-05-17T08:18:51.683Z,14.33
2018-05-17T08:21:22.471Z,13.60
2018-05-17T08:23:53.265Z,14.13
2018-05-17T08:26:24.054Z,13.93
2018-05-17T08:28:54.812Z,12.90
2018-05-17T08:31:25.626Z,13.53
2018-05-17T08:33:56.420Z,13.90
2018-05-17T08:36:27.307Z,13.90
2018-05-17T08:38:57.971Z,14.00
2018-05-17T08:41:28.796Z,13.67
2018-05-17T08:43:59.564Z,13.00
2018-05-17T08:46:30.364Z,14.40
2018-05-17T08:49:01.221Z,13.63
2018-05-17T08:51:32.023Z,14.50
2018-05-17T08:54:02.803Z,12.67
2018-05-17T08:56:33.590Z,15.60
2018-05-17T08:59:04.339Z,15.10
2018-05-17T09:01:35.142Z,15.40
2018-05-17T09:04:05.900Z,17.37
2018-05-17T09:06:36.675Z,13.90
2018-05-17T09:09:07.452Z,14.00
2018-05-17T09:11:38.327Z,14.10
2018-05-17T09:14:09.086Z,14.60
2018-05-17T09:16:39.894Z,14.03
2018-05-17T09:19:10.684Z,13.33
2018-05-17T09:21:41.435Z,15.07
2018-05-17T09:24:12.215Z,13.83
2018-05-17T09:26:42.996Z,12.90
2018-05-17T09:29:13.814Z,13.33
2018-05-17T09:31:44.591Z,14.47
2018-05-17T09:34:15.353Z,14.20
2018-05-17T09:36:46.169Z,13.83
2018-05-17T09:39:16.940Z,13.07
2018-05-17T09:41:47.772Z,13.27
2018-05-17T09:44:18.778Z,14.23
2018-05-17T09:46:49.617Z,14.13
2018-05-17T09:49:20.389Z,12.37
2018-05-17T09:51:51.203Z,13.97
2018-05-17T09:54:21.974Z,13.70
2018-05-17T09:56:52.811Z,12.40
2018-05-17T09:59:23.646Z,12.60
2018-05-17T10:01:54.479Z,13.00
2018-05-17T10:04:25.292Z,12.43
2018-05-17T10:06:56.162Z,12.30
2018-05-17T10:09:26.973Z,13.40
2018-05-17T10:11:58.113Z,13.00
2018-05-17T10:14:29.588Z,13.40
2018-05-17T10:17:01.439Z,13.70
2018-05-17T10:19:32.304Z,14.23
2018-05-17T10:22:03.111Z,13.97
2018-05-17T10:24:33.892Z,13.70
2018-05-17T10:27:05.711Z,16.40
2018-05-17T10:29:36.491Z,16.13
2018-05-17T10:32:08.447Z,16.40
2018-05-17T10:34:45.285Z,16.00
2018-05-17T10:37:16.072Z,17.87
2018-05-17T10:39:50.012Z,16.70
2018-05-17T10:42:20.806Z,18.43
2018-05-17T10:44:51.567Z,18.30
2018-05-17T10:47:23.450Z,18.53
2018-05-17T10:49:54.227Z,18.13
2018-05-17T10:52:25.009Z,19.30
2018-05-17T10:54:55.772Z,19.47
2018-05-17T10:57:26.566Z,21.40
2018-05-17T10:59:57.332Z,20.37
2018-05-17T11:02:28.248Z,21.60
2018-05-17T11:04:59.070Z,21.10
2018-05-17T11:07:29.868Z,20.77
2018-05-17T11:10:00.633Z,21.60
2018-05-17T11:12:31.404Z,21.37
2018-05-17T11:15:02.202Z,20.57
2018-05-17T11:17:33.083Z,20.63
2018-05-17T11:20:04.923Z,22.17
2018-05-17T11:22:35.907Z,22.70
2018-05-17T11:25:06.679Z,23.00
2018-05-17T11:27:37.468Z,23.13
2018-05-17T11:30:18.672Z,22.47
2018-05-17T11:32:51.487Z,22.10
2018-05-17T11:35:22.352Z,21.27
2018-05-17T11:37:53.171Z,22.00
2018-05-17T11:40:24.691Z,21.67
2018-05-17T11:42:55.514Z,22.73
2018-05-17T11:45:26.280Z,20.93
2018-05-17T11:47:57.088Z,21.37
2018-05-17T11:50:27.952Z,21.30
2018-05-17T11:52:59.422Z,22.70
2018-05-17T11:55:30.208Z,21.17
2018-05-17T11:58:01.045Z,21.27
2018-05-17T12:00:31.806Z,21.60
2018-05-17T12:03:02.589Z,20.87
2018-05-17T12:05:33.369Z,22.30
2018-05-17T12:08:04.161Z,22.70
2018-05-17T12:10:34.933Z,20.83
2018-05-17T12:13:05.720Z,23.30
2018-05-17T12:15:36.519Z,24.70
2018-05-17T12:18:07.315Z,23.53
2018-05-17T12:20:38.933Z,25.57
2018-05-17T12:23:09.863Z,23.07
2018-05-17T12:25:40.633Z,22.33
2018-05-17T12:28:11.420Z,23.10
2018-05-17T12:30:42.160Z,22.63
2018-05-17T12:33:12.960Z,22.60
2018-05-17T12:35:43.711Z,22.17
2018-05-17T12:38:14.515Z,23.67
2018-05-17T12:40:45.279Z,23.20
2018-05-17T12:43:16.059Z,23.30
2018-05-17T12:45:46.834Z,23.10
2018-05-17T12:48:17.627Z,20.23
2018-05-17T12:50:48.415Z,20.00
2018-05-17T12:53:19.153Z,20.23
2018-05-17T12:55:49.932Z,20.17
2018-05-17T12:58:20.733Z,19.80
2018-05-17T13:00:51.508Z,19.83
2018-05-17T13:03:22.287Z,17.90
2018-05-17T13:05:53.068Z,19.80
2018-05-17T13:08:23.848Z,20.90
2018-05-17T13:10:54.624Z,18.87
2018-05-17T13:13:25.416Z,20.50
2018-05-17T13:15:56.212Z,21.47
2018-05-17T13:18:27.040Z,18.77
2018-05-17T13:20:57.793Z,20.80
2018-05-17T13:23:28.572Z,16.60
2018-05-17T13:25:59.408Z,18.67
2018-05-17T13:28:30.190Z,15.97
2018-05-17T13:31:00.959Z,17.33
2018-05-17T13:33:31.727Z,15.90
2018-05-17T13:36:02.563Z,18.67
2018-05-17T13:38:33.440Z,17.60
2018-05-17T13:41:04.231Z,17.83
2018-05-17T13:43:35.116Z,17.17
2018-05-17T13:46:05.909Z,15.87
2018-05-17T13:48:36.693Z,16.17
2018-05-17T13:51:07.452Z,14.23
2018-05-17T13:53:38.239Z,14.60
2018-05-17T13:56:09.081Z,15.33
2018-05-17T13:58:39.879Z,13.40
2018-05-17T14:01:17.768Z,13.70
2018-05-17T14:03:48.565Z,13.80
2018-05-17T14:06:19.322Z,13.57
2018-05-17T14:08:50.102Z,13.50
2018-05-17T14:11:20.860Z,11.33
2018-05-17T14:13:51.740Z,12.40
2018-05-17T14:16:22.420Z,12.70
2018-05-17T14:18:53.199Z,12.67
2018-05-17T14:21:23.970Z,12.97
2018-05-17T14:23:54.752Z,12.67
2018-05-17T14:26:25.513Z,13.20
2018-05-17T14:28:56.314Z,12.80
2018-05-17T14:44:37.772Z,12.40
2018-05-17T14:47:08.547Z,11.50
2018-05-17T14:49:39.344Z,11.23
2018-05-17T14:52:10.119Z,11.53
2018-05-17T14:54:40.904Z,10.90
2018-05-17T14:57:11.690Z,10.73
2018-05-17T14:59:42.481Z,11.23
2018-05-17T15:02:13.281Z,11.20
2018-05-17T15:04:44.080Z,11.77
2018-05-17T15:07:14.868Z,11.97
2018-05-17T15:09:46.689Z,11.13
2018-05-17T15:12:17.460Z,11.30
2018-05-17T15:14:48.259Z,10.80
2018-05-17T15:17:19.027Z,10.60
2018-05-17T15:19:50.903Z,11.03
2018-05-17T15:22:21.687Z,11.00
2018-05-17T15:24:52.507Z,11.60
2018-05-17T15:27:23.325Z,11.00
2018-05-17T15:29:54.203Z,12.57
2018-05-17T15:32:24.980Z,12.07
2018-05-17T15:34:55.776Z,11.53
2018-05-17T15:37:26.664Z,12.20
2018-05-17T15:39:57.464Z,12.87
2018-05-17T15:42:28.284Z,12.53
2018-05-17T15:44:59.092Z,13.30
2018-05-17T15:47:29.875Z,13.63
2018-05-17T15:50:00.697Z,12.80
2018-05-17T15:52:31.478Z,12.47
2018-05-17T15:55:02.320Z,12.80
2018-05-17T15:57:33.111Z,13.00
2018-05-17T16:00:04.022Z,12.77
2018-05-17T16:02:34.812Z,11.53
2018-05-17T16:05:05.604Z,10.40
2018-05-17T16:07:36.391Z,9.77
2018-05-17T16:10:07.191Z,8.93
2018-05-17T16:12:38.003Z,9.77
2018-05-17T16:15:08.829Z,9.53
2018-05-17T16:17:39.609Z,9.57
2018-05-17T16:20:10.388Z,9.03
2018-05-17T16:22:41.180Z,8.77
2018-05-17T16:25:11.980Z,9.73
2018-05-17T16:27:42.755Z,9.53
2018-05-17T16:30:13.549Z,9.60
2018-05-17T16:32:44.403Z,9.30
2018-05-17T16:35:15.128Z,8.70
2018-05-17T16:37:45.912Z,9.63
2018-05-17T16:40:16.717Z,9.97
2018-05-17T16:42:47.585Z,11.20
2018-05-17T16:45:18.331Z,10.00
2018-05-17T16:47:49.100Z,9.57
2018-05-17T16:50:20.012Z,10.53
2018-05-17T16:52:51.863Z,10.43
2018-05-17T16:55:22.703Z,10.03
2018-05-17T16:57:53.495Z,9.90
2018-05-17T17:00:24.388Z,9.40
2018-05-17T17:02:55.196Z,9.80
2018-05-17T17:05:25.983Z,10.10
2018-05-17T17:07:56.767Z,9.73
2018-05-17T17:10:27.615Z,10.10
2018-05-17T17:12:58.381Z,8.70
2018-05-17T17:15:29.196Z,9.50
2018-05-17T17:18:00.003Z,9.90
2018-05-17T17:20:30.839Z,9.73
2018-05-17T17:23:01.684Z,10.07
2018-05-17T17:25:32.488Z,10.37
2018-05-17T17:28:03.281Z,9.73
2018-05-17T17:30:34.051Z,10.87
2018-05-17T17:33:04.946Z,10.53
2018-05-17T17:35:35.765Z,10.17
2018-05-17T17:38:06.541Z,10.70
2018-05-17T17:40:43.555Z,12.10
2018-05-17T17:43:14.388Z,10.07
2018-05-17T17:45:45.208Z,12.40
2018-05-17T17:48:16.056Z,10.80
2018-05-17T17:50:46.839Z,10.40
2018-05-17T17:53:17.713Z,9.70
2018-05-17T17:55:48.591Z,9.10
2018-05-17T17:58:19.377Z,8.40
2018-05-17T18:00:50.145Z,9.27
2018-05-17T18:03:20.912Z,9.97
2018-05-17T18:05:51.698Z,9.90
2018-05-17T18:08:22.541Z,9.47
2018-05-17T18:10:53.347Z,9.50
2018-05-17T18:13:24.111Z,9.43
2018-05-17T18:15:54.925Z,9.37
2018-05-17T18:18:25.793Z,9.40
2018-05-17T18:20:56.647Z,9.10
2018-05-17T18:23:27.407Z,9.30
2018-05-17T18:25:58.195Z,8.70
2018-05-17T18:28:28.962Z,8.37
2018-05-17T18:30:59.755Z,9.40
2018-05-17T18:33:30.622Z,9.67
2018-05-17T18:36:01.402Z,8.80
2018-05-17T18:38:32.178Z,9.60
2018-05-17T18:41:02.977Z,10.00
2018-05-17T18:43:33.766Z,10.40
2018-05-17T18:46:04.574Z,8.97
2018-05-17T18:48:35.448Z,8.83
2018-05-17T18:51:06.328Z,10.70
2018-05-17T18:53:37.056Z,11.20
2018-05-17T18:56:07.847Z,11.83
2018-05-17T18:58:38.624Z,10.57
2018-05-17T19:01:09.434Z,10.50
2018-05-17T19:03:40.244Z,11.90
2018-05-17T19:06:11.050Z,13.50
2018-05-17T19:08:41.855Z,12.60
2018-05-17T19:11:12.680Z,12.07
2018-05-17T19:13:43.463Z,11.60
2018-05-17T19:16:14.283Z,11.53
2018-05-17T19:18:45.064Z,12.30
2018-05-17T19:21:15.865Z,11.93
2018-05-17T19:23:46.673Z,12.13
2018-05-17T19:26:17.474Z,12.67
2018-05-17T19:28:48.274Z,12.20
2018-05-17T19:31:19.074Z,10.93
2018-05-17T19:33:49.902Z,12.10
2018-05-17T19:36:20.654Z,12.70
2018-05-17T19:38:51.416Z,13.20
2018-05-17T19:41:22.222Z,11.77
2018-05-17T19:43:52.985Z,11.80
2018-05-17T19:46:23.792Z,12.77
2018-05-17T19:48:54.531Z,12.57
2018-05-17T19:51:25.296Z,13.10
2018-05-17T19:53:56.156Z,11.53
2018-05-17T19:56:26.937Z,13.10
2018-05-17T19:58:57.803Z,12.63
2018-05-17T20:01:28.611Z,13.80
2018-05-17T20:03:59.401Z,12.67
2018-05-17T20:06:30.192Z,13.83
2018-05-17T20:09:00.938Z,12.90
2018-05-17T20:11:31.730Z,14.47
2018-05-17T20:14:02.479Z,13.77
2018-05-17T20:16:33.271Z,12.93
2018-05-17T20:19:04.050Z,13.67
2018-05-17T20:21:34.933Z,13.27
2018-05-17T20:24:05.676Z,13.80
2018-05-17T20:26:36.440Z,14.13
2018-05-17T20:29:07.190Z,12.43
2018-05-17T20:31:37.983Z,14.33
2018-05-17T20:34:08.728Z,13.30
2018-05-17T20:36:39.641Z,12.33
2018-05-17T20:39:10.341Z,15.37
2018-05-17T20:41:41.135Z,13.47
2018-05-17T20:44:11.916Z,14.67
2018-05-17T20:46:42.771Z,14.73
2018-05-17T20:49:13.548Z,13.73
2018-05-17T20:51:44.339Z,13.50
2018-05-17T20:54:15.119Z,12.60
2018-05-17T20:56:45.907Z,14.27
2018-05-17T20:59:16.771Z,12.80
2018-05-17T21:01:47.560Z,12.77
2018-05-17T21:04:18.345Z,12.73
2018-05-17T21:06:49.128Z,13.17
2018-05-17T21:09:19.911Z,12.77
2018-05-17T21:11:50.704Z,12.27
2018-05-17T21:14:21.488Z,12.30
2018-05-17T21:16:52.275Z,11.00
2018-05-17T21:19:23.220Z,11.30
2018-05-17T21:21:54.003Z,11.00
2018-05-17T21:24:24.767Z,11.23
2018-05-17T21:26:55.559Z,9.73
2018-05-17T21:29:26.319Z,9.77
2018-05-17T21:31:57.129Z,9.50
2018-05-17T21:34:27.964Z,9.20
2018-05-17T21:36:58.759Z,8.73
2018-05-17T21:39:29.553Z,9.67
2018-05-17T21:42:00.284Z,9.17
2018-05-17T21:44:31.080Z,8.80
2018-05-17T21:47:01.852Z,9.47
2018-05-17T21:49:32.617Z,8.73
2018-05-17T21:52:03.383Z,8.47
2018-05-17T21:54:34.144Z,9.27
2018-05-17T21:57:04.927Z,8.57
2018-05-17T21:59:35.683Z,8.40
2018-05-17T22:02:06.471Z,8.23
2018-05-17T22:04:37.206Z,7.93
2018-05-17T22:07:07.997Z,8.53
2018-05-17T22:09:38.751Z,8.17
2018-05-17T22:12:09.529Z,8.67
2018-05-17T22:14:40.379Z,8.40
2018-05-17T22:17:11.187Z,7.67
2018-05-17T22:19:41.931Z,8.37
2018-05-17T22:22:12.728Z,8.37
2018-05-17T22:24:43.535Z,8.13
2018-05-17T22:27:14.275Z,9.60
2018-05-17T22:29:45.031Z,8.10
2018-05-17T22:32:15.821Z,8.00
2018-05-17T22:34:46.610Z,8.10
2018-05-17T22:37:17.387Z,8.00
2018-05-17T22:39:48.216Z,8.33
2018-05-17T22:42:19.011Z,7.90
2018-05-17T22:44:49.786Z,8.27
2018-05-17T22:47:20.581Z,8.00
2018-05-17T22:49:51.355Z,8.67
2018-05-17T22:52:22.149Z,8.43
2018-05-17T22:54:52.930Z,8.23
2018-05-17T22:57:36.336Z,8.47
2018-05-17T23:00:07.155Z,8.52
2018-05-17T23:02:37.949Z,8.00
2018-05-17T23:05:08.719Z,8.27
2018-05-17T23:07:39.502Z,7.87
2018-05-17T23:10:10.287Z,8.40
2018-05-17T23:12:41.079Z,8.20
2018-05-17T23:15:11.935Z,7.47
2018-05-17T23:17:42.619Z,7.30
2018-05-17T23:20:13.388Z,8.60
2018-05-17T23:22:44.287Z,9.10
2018-05-17T23:25:15.069Z,8.80
2018-05-17T23:27:45.874Z,9.73
2018-05-17T23:30:16.677Z,9.00
2018-05-17T23:32:47.473Z,7.73
2018-05-17T23:35:18.255Z,7.83
2018-05-17T23:37:49.044Z,7.87
2018-05-17T23:40:32.246Z,7.47
2018-05-17T23:43:03.054Z,8.05
2018-05-17T23:45:33.849Z,8.37
2018-05-17T23:48:04.641Z,7.70
2018-05-17T23:50:35.411Z,7.50
2018-05-17T23:53:06.193Z,7.73
2018-05-17T23:55:36.961Z,8.00
2018-05-17T23:58:07.772Z,8.10
